Skip Navigation Links
NOAA logo - Click to go to the NOAA homepage
NOAA's National Weather Service
Alaska Aviation Weather Unit
  NWS logo - Click to go to the NWS homepage
Left Navbar Graphic     17 AKDT = 01 GMT

   
NOAA is celebrating 200 years of science, service, and stewardship. Visit the NOAA 200th celebration Web site to learn more.
USA.gov is the U.S. Government's official Web portal to all Federal, state and local government Web resources and services.
Facebook
NWS on Facebook

Important Change Regarding the AAWU Web Presence

 

Over the last several months, the AAWU has been working to navigate its webpages to a nationally supported server. Security, as well as other needs, have necessitated the change.  In the process, we have made an effort to enhance the functionality of our website, as well as some of our products. As of June 27, 2017, aawu.arh.noaa.gov will be discontinued. The new AAWU web address is weather.gov/aawu. It is now live and will run in-parallel with the old site until it is discontinued. Please send any feedback or questions regarding the new webpages to nws.ar.aawu.webauthors@noaa.gov.  Thank you for your patience during this time of transition.
AAWU Home :: Display TAF Add Bookmark
METAR PAII 251956Z AUTO VRB06KT 10SM BKN029 14/08 A3002 RMK AO2 SLP168
     T01390078=

SPECI PAII 252048Z AUTO 31006KT 10SM BKN031 OVC036 13/08 A3001 RMK
     AO2=

METAR PAII 252056Z AUTO 31005KT 10SM SCT031 OVC036 13/08 A3001 RMK
 AO2 SLP165 T01280078 56009=

SPECI PAII 252138Z AUTO 30005KT 10SM FEW022 BKN028 OVC040 12/08 A3000
     RMK AO2=

METAR PAII 252156Z AUTO 34004KT 10SM SCT029 OVC035 12/07 A3000 RMK AO2
     SLP162 T01220072=

METAR PAII 252256Z AUTO 13016G20KT 10SM OVC037 13/07 A2998 RMK AO2
     SLP155 T01280067=

PAII 252356Z AUTO 19013G16KT 10SM OVC042 13/05 A2997 RMK AO2
     SLP152 T01280050 10139 20117 56012=


NOAA's National Weather Service
Alaska Aviation Weather Unit
6930 Sand Lake Road
Anchorage, AK 99502-1845
Disclaimer
Credits
Glossary
Privacy Policy
About Us
Career Opportunities
Contact AAWU Internet Services Site last modified: April, 17th 2012